Time;durP1;ratioP1;P1;durP2;ratioP2;P2;SDS_P1;SDS_P2;PMS_P1;PMS_P2;Temp;Humidity;BMP_temperature;BMP_pressure;BME280_temperature;BME280_humidity;BME280_pressure;Samples;Min_cycle;Max_cycle;Signal;HPM_P1;HPM_P2
2022/03/16 00:02:03;;;;;;;16.58;14.98;;;14.00;76.40;;;;;;5034224;28;20083;-62
2022/03/16 00:04:29;;;;;;;17.00;15.15;;;14.00;76.40;;;;;;5037021;28;20021;-60
2022/03/16 00:06:54;;;;;;;19.17;15.65;;;13.90;76.40;;;;;;5036789;28;20532;-62
2022/03/16 00:09:20;;;;;;;17.02;15.05;;;14.00;76.60;;;;;;5036925;28;20033;-62
2022/03/16 00:11:45;;;;;;;19.23;16.05;;;13.90;77.20;;;;;;5036743;28;20537;-63
2022/03/16 00:14:11;;;;;;;17.90;16.02;;;13.90;76.70;;;;;;5036841;28;20052;-63
2022/03/16 00:16:36;;;;;;;15.75;14.15;;;13.90;76.80;;;;;;5036874;28;20029;-63
2022/03/16 00:19:02;;;;;;;17.13;15.13;;;13.90;76.80;;;;;;5036777;28;20040;-61
2022/03/16 00:21:28;;;;;;;17.27;15.50;;;13.80;76.70;;;;;;5036529;28;20033;-62
2022/03/16 00:23:53;;;;;;;17.10;15.07;;;13.80;76.70;;;;;;5036319;28;20040;-62
2022/03/16 00:26:19;;;;;;;16.27;14.35;;;13.80;76.70;;;;;;5036696;28;20026;-60
2022/03/16 00:28:44;;;;;;;17.27;15.40;;;13.80;76.80;;;;;;5036768;28;20121;-62
2022/03/16 00:31:10;;;;;;;16.23;14.63;;;13.80;76.90;;;;;;5036677;28;20104;-62
2022/03/16 00:33:36;;;;;;;15.95;14.35;;;13.80;76.80;;;;;;5036531;28;20061;-60
2022/03/16 00:36:01;;;;;;;15.52;13.93;;;13.70;76.80;;;;;;5036848;28;20533;-62
2022/03/16 00:38:27;;;;;;;15.73;13.60;;;13.80;76.90;;;;;;5036195;28;20528;-62
2022/03/16 00:40:52;;;;;;;19.35;14.23;;;13.80;76.80;;;;;;5036522;28;20562;-62
2022/03/16 00:43:18;;;;;;;17.67;15.80;;;13.80;76.80;;;;;;5036269;28;20022;-59
2022/03/16 00:45:44;;;;;;;16.42;14.73;;;13.70;76.90;;;;;;5036052;28;20029;-58
2022/03/16 00:48:09;;;;;;;15.40;13.80;;;13.70;76.80;;;;;;5036350;28;20021;-60
2022/03/16 00:50:36;;;;;;;16.60;14.95;;;13.70;77.00;;;;;;5036291;28;20035;-59
2022/03/16 00:53:02;;;;;;;15.73;14.13;;;13.70;77.00;;;;;;5035842;28;20025;-62
2022/03/16 00:55:27;;;;;;;15.32;13.75;;;13.70;77.00;;;;;;5036262;28;20025;-60
2022/03/16 00:57:53;;;;;;;20.27;14.25;;;13.70;77.10;;;;;;5035757;28;20022;-62
2022/03/16 01:00:18;;;;;;;16.45;14.75;;;13.60;77.10;;;;;;5036118;28;20501;-63
2022/03/16 01:02:44;;;;;;;16.67;14.98;;;13.60;77.20;;;;;;5035907;28;20022;-62
2022/03/16 01:05:10;;;;;;;16.55;14.52;;;13.60;77.30;;;;;;5036041;28;20029;-61
2022/03/16 01:07:35;;;;;;;16.90;15.10;;;13.60;77.40;;;;;;5035444;28;20020;-59
2022/03/16 01:10:01;;;;;;;15.68;13.98;;;13.60;77.30;;;;;;5035860;28;20036;-62
2022/03/16 01:12:27;;;;;;;17.83;16.02;;;13.50;77.50;;;;;;5035587;28;20539;-61
2022/03/16 01:14:52;;;;;;;16.05;14.45;;;13.50;77.60;;;;;;5034705;28;20144;-62
2022/03/16 01:17:18;;;;;;;16.73;15.13;;;13.50;77.50;;;;;;5035837;28;20466;-61
2022/03/16 01:19:44;;;;;;;16.23;14.63;;;13.50;77.60;;;;;;5017791;28;20026;-62
2022/03/16 01:22:10;;;;;;;16.33;14.63;;;13.50;77.70;;;;;;5035342;28;20462;-63
2022/03/16 01:24:35;;;;;;;16.80;15.10;;;13.50;77.70;;;;;;5035436;28;20489;-62
2022/03/16 01:27:01;;;;;;;17.45;15.52;;;13.40;77.60;;;;;;5035643;28;20013;-60
2022/03/16 01:29:27;;;;;;;16.73;15.02;;;13.40;77.90;;;;;;5035395;28;20044;-63
2022/03/16 01:31:53;;;;;;;18.55;16.05;;;13.40;77.80;;;;;;5035496;28;20394;-61
2022/03/16 01:34:20;;;;;;;18.92;16.85;;;13.40;77.90;;;;;;5035286;28;20051;-62
2022/03/16 01:36:46;;;;;;;18.20;16.30;;;13.30;78.10;;;;;;5035305;28;20057;-63
2022/03/16 01:39:12;;;;;;;17.40;15.60;;;13.30;78.10;;;;;;5035363;28;20028;-63
2022/03/16 01:41:37;;;;;;;17.40;15.73;;;13.30;78.20;;;;;;5034861;28;20034;-62
2022/03/16 01:44:03;;;;;;;17.40;15.60;;;13.30;78.30;;;;;;5035063;28;20021;-61
2022/03/16 01:46:29;;;;;;;17.50;15.70;;;13.20;78.40;;;;;;5035303;28;20109;-62
2022/03/16 01:48:54;;;;;;;18.20;16.20;;;13.20;78.50;;;;;;5035268;28;20049;-62
2022/03/16 01:51:21;;;;;;;17.23;15.50;;;13.20;78.50;;;;;;5017263;28;20538;-62
2022/03/16 01:53:48;;;;;;;17.55;15.80;;;13.20;78.50;;;;;;5035010;28;20025;-62
2022/03/16 01:56:18;;;;;;;17.77;15.52;;;13.20;78.50;;;;;;5035123;28;20025;-57
2022/03/16 01:58:44;;;;;;;19.15;17.13;;;13.20;78.60;;;;;;5034915;28;20024;-59
2022/03/16 02:01:10;;;;;;;17.75;15.85;;;13.10;78.70;;;;;;5034801;28;20041;-59
2022/03/16 02:03:35;;;;;;;18.65;16.70;;;13.10;78.70;;;;;;5034861;28;20033;-59
2022/03/16 02:06:03;;;;;;;17.58;15.88;;;13.10;78.70;;;;;;5016710;28;20063;-60
2022/03/16 02:08:30;;;;;;;17.45;15.73;;;13.10;78.80;;;;;;5034709;28;20014;-59
2022/03/16 02:10:56;;;;;;;17.20;15.35;;;13.10;78.80;;;;;;5034674;28;20025;-59
2022/03/16 02:13:21;;;;;;;17.55;15.75;;;13.10;78.80;;;;;;5034757;28;20030;-59
2022/03/16 02:15:47;;;;;;;17.60;15.80;;;13.00;78.70;;;;;;5034406;28;20565;-59
2022/03/16 02:18:13;;;;;;;18.10;16.30;;;13.10;78.90;;;;;;5034687;28;20037;-59
2022/03/16 02:20:39;;;;;;;17.98;16.00;;;13.00;78.80;;;;;;5034185;28;20497;-59
2022/03/16 02:23:08;;;;;;;17.40;15.73;;;13.00;78.80;;;;;;5034589;28;20022;-59
2022/03/16 02:25:48;;;;;;;18.35;16.27;;;13.00;79.00;;;;;;5033819;28;20037;-59
2022/03/16 02:28:13;;;;;;;18.08;16.33;;;12.90;79.20;;;;;;5034277;28;20030;-60
2022/03/16 02:30:39;;;;;;;17.67;15.98;;;12.90;79.20;;;;;;5034257;28;20036;-58
2022/03/16 02:33:04;;;;;;;17.88;15.38;;;12.80;79.20;;;;;;5034432;28;20072;-61
2022/03/16 02:35:31;;;;;;;18.38;16.48;;;12.90;79.30;;;;;;5033924;28;20470;-59
2022/03/16 02:37:58;;;;;;;18.17;16.35;;;12.80;79.20;;;;;;5034314;28;20027;-58
2022/03/16 02:40:24;;;;;;;17.67;15.98;;;12.80;79.40;;;;;;5034036;28;20041;-59
2022/03/16 02:42:50;;;;;;;17.88;15.98;;;12.80;79.20;;;;;;5034052;28;20125;-59
2022/03/16 02:45:16;;;;;;;17.73;15.88;;;12.80;79.30;;;;;;5034005;28;20021;-58
2022/03/16 02:47:42;;;;;;;18.23;16.40;;;12.80;79.30;;;;;;5034137;28;20049;-58
2022/03/16 02:50:09;;;;;;;19.00;15.98;;;12.80;79.40;;;;;;5033464;28;20064;-57
2022/03/16 02:52:35;;;;;;;18.70;16.77;;;12.70;79.40;;;;;;5034089;28;20026;-61
2022/03/16 02:55:01;;;;;;;17.00;15.20;;;12.70;79.40;;;;;;5033814;28;20076;-60
2022/03/16 02:57:27;;;;;;;16.05;14.55;;;12.60;79.60;;;;;;5033768;28;20163;-60
2022/03/16 02:59:53;;;;;;;18.33;16.45;;;12.70;79.60;;;;;;5033983;28;20076;-60
2022/03/16 03:02:18;;;;;;;17.58;15.77;;;12.70;79.70;;;;;;5033735;28;20469;-60
2022/03/16 03:04:44;;;;;;;17.45;15.75;;;12.60;79.70;;;;;;5033313;28;20355;-59
2022/03/16 03:07:10;;;;;;;17.25;15.50;;;12.60;79.70;;;;;;5033752;28;20037;-59
2022/03/16 03:09:36;;;;;;;17.00;15.23;;;12.60;79.70;;;;;;5033593;28;20029;-59
2022/03/16 03:12:02;;;;;;;17.08;15.38;;;12.60;79.70;;;;;;5033615;28;20068;-56
2022/03/16 03:14:28;;;;;;;18.35;16.13;;;12.60;79.80;;;;;;5033833;28;20032;-58
2022/03/16 03:16:54;;;;;;;18.17;16.27;;;12.50;79.70;;;;;;5033436;28;20108;-59
2022/03/16 03:19:21;;;;;;;17.13;15.43;;;12.50;79.80;;;;;;5033238;28;20112;-60
2022/03/16 03:21:47;;;;;;;18.38;16.13;;;12.50;80.00;;;;;;5033238;28;20040;-62
2022/03/16 03:24:12;;;;;;;18.00;15.63;;;12.50;80.00;;;;;;5033534;28;20100;-58
2022/03/16 03:26:38;;;;;;;18.33;15.43;;;12.50;80.20;;;;;;5033184;28;20105;-57
2022/03/16 03:29:04;;;;;;;18.10;16.30;;;12.50;80.10;;;;;;5033136;28;20494;-62
2022/03/16 03:31:29;;;;;;;17.30;15.50;;;12.50;80.10;;;;;;5033366;28;20061;-61
2022/03/16 03:33:55;;;;;;;18.33;15.27;;;12.40;80.80;;;;;;5033130;28;20471;-63
2022/03/16 03:36:21;;;;;;;16.80;15.10;;;12.40;80.10;;;;;;5016692;28;20029;-61
2022/03/16 03:38:49;;;;;;;20.88;16.50;;;12.40;80.20;;;;;;5034265;28;20041;-59
2022/03/16 03:41:15;;;;;;;16.60;15.05;;;12.40;80.30;;;;;;5031768;28;20034;-60
2022/03/16 03:43:40;;;;;;;17.48;15.73;;;12.40;80.40;;;;;;5033043;28;20032;-62
2022/03/16 03:46:06;;;;;;;16.85;14.88;;;12.30;80.40;;;;;;5032964;28;20036;-59
2022/03/16 03:48:31;;;;;;;17.58;15.88;;;12.40;80.30;;;;;;5033038;28;20033;-59
2022/03/16 03:50:58;;;;;;;17.40;15.70;;;12.30;80.40;;;;;;5033067;28;20033;-59
2022/03/16 03:53:23;;;;;;;17.02;15.32;;;12.30;80.50;;;;;;5032827;28;20030;-57
2022/03/16 03:55:49;;;;;;;16.45;14.75;;;12.30;80.60;;;;;;5032862;28;20593;-58
2022/03/16 03:58:15;;;;;;;17.17;15.48;;;12.30;80.60;;;;;;5033117;28;20498;-60
2022/03/16 04:00:40;;;;;;;16.88;15.13;;;12.30;80.70;;;;;;5033089;28;20041;-60
2022/03/16 04:03:06;;;;;;;16.58;15.00;;;12.20;80.60;;;;;;5032751;28;20029;-59
2022/03/16 04:05:32;;;;;;;17.77;15.05;;;12.30;80.70;;;;;;5032870;28;20379;-59
2022/03/16 04:07:57;;;;;;;16.88;15.07;;;12.30;80.70;;;;;;5032826;28;20030;-59
2022/03/16 04:10:23;;;;;;;16.98;15.35;;;12.20;80.70;;;;;;5033268;28;20040;-59
2022/03/16 04:12:49;;;;;;;18.42;16.60;;;12.20;80.70;;;;;;5032871;28;20040;-58
2022/03/16 04:15:15;;;;;;;17.50;15.77;;;12.20;80.70;;;;;;5033052;28;20026;-60
2022/03/16 04:17:41;;;;;;;18.05;15.00;;;12.20;80.90;;;;;;5032519;28;20509;-59
2022/03/16 04:20:07;;;;;;;16.73;15.13;;;12.20;80.80;;;;;;5032765;28;20038;-60
2022/03/16 04:22:33;;;;;;;17.65;15.85;;;12.20;81.50;;;;;;5032863;28;20029;-58
2022/03/16 04:24:58;;;;;;;17.08;15.35;;;12.20;80.80;;;;;;5032562;28;20022;-58
2022/03/16 04:27:24;;;;;;;13.68;12.40;;;12.20;81.00;;;;;;5032543;28;20028;-57
2022/03/16 04:29:50;;;;;;;13.07;11.60;;;12.20;81.70;;;;;;5032947;28;20018;-57
2022/03/16 04:32:16;;;;;;;12.65;11.45;;;12.30;81.30;;;;;;5032301;28;20467;-57
2022/03/16 04:34:42;;;;;;;12.93;11.10;;;12.30;81.80;;;;;;5032697;28;20014;-59
2022/03/16 04:37:08;;;;;;;12.70;11.43;;;12.30;81.90;;;;;;5032550;28;20026;-55
2022/03/16 04:39:33;;;;;;;12.77;11.52;;;12.40;81.70;;;;;;5032534;28;20490;-62
2022/03/16 04:41:59;;;;;;;14.05;12.15;;;12.30;82.00;;;;;;5032950;28;20478;-60
2022/03/16 04:44:24;;;;;;;13.98;12.68;;;12.30;82.30;;;;;;5032482;28;20494;-59
2022/03/16 04:46:50;;;;;;;13.15;11.93;;;12.40;81.70;;;;;;5032445;28;20530;-61
2022/03/16 04:49:15;;;;;;;14.02;12.60;;;12.50;80.60;;;;;;5035475;28;20422;-60
2022/03/16 04:51:41;;;;;;;13.05;11.77;;;12.50;80.90;;;;;;5018507;28;20028;-62
2022/03/16 04:54:10;;;;;;;11.43;10.32;;;12.40;81.40;;;;;;5036030;28;20466;-63
2022/03/16 04:56:36;;;;;;;12.43;11.23;;;12.50;80.90;;;;;;5036380;28;20022;-63
2022/03/16 04:59:02;;;;;;;13.98;12.57;;;12.50;81.10;;;;;;5036047;28;20489;-63
2022/03/16 05:01:28;;;;;;;12.10;11.00;;;12.50;80.50;;;;;;5035722;28;20033;-62
2022/03/16 05:03:53;;;;;;;13.50;12.10;;;12.50;80.60;;;;;;5035934;28;20018;-63
2022/03/16 05:06:20;;;;;;;13.63;12.25;;;12.50;80.30;;;;;;5036001;28;20025;-63
2022/03/16 05:08:47;;;;;;;12.82;11.63;;;12.50;80.40;;;;;;5035756;28;20101;-62
2022/03/16 05:11:17;;;;;;;13.35;12.02;;;12.40;81.30;;;;;;5036099;28;20041;-63
2022/03/16 05:13:43;;;;;;;12.45;11.15;;;12.50;81.10;;;;;;5035823;28;20029;-62
2022/03/16 05:16:09;;;;;;;12.20;11.02;;;12.50;80.90;;;;;;5035390;28;20466;-62
2022/03/16 05:18:35;;;;;;;15.07;12.75;;;12.50;80.50;;;;;;5035765;28;20032;-62
2022/03/16 05:21:03;;;;;;;18.83;14.27;;;12.50;81.10;;;;;;5035712;28;20033;-64
2022/03/16 05:23:29;;;;;;;14.00;12.60;;;12.50;80.40;;;;;;5035504;28;20482;-62
2022/03/16 05:25:55;;;;;;;13.10;11.88;;;12.50;80.50;;;;;;5035584;28;20029;-62
2022/03/16 05:28:21;;;;;;;13.43;11.88;;;12.50;80.40;;;;;;5035260;28;20091;-63
2022/03/16 05:30:47;;;;;;;13.73;12.32;;;12.40;80.60;;;;;;5035449;28;20021;-62
2022/03/16 05:33:13;;;;;;;13.18;11.98;;;12.40;80.90;;;;;;5035459;28;20037;-62
2022/03/16 05:35:40;;;;;;;12.55;11.35;;;12.50;80.90;;;;;;5035505;28;20029;-62
2022/03/16 05:38:08;;;;;;;13.55;11.95;;;12.40;81.30;;;;;;5035300;28;20029;-61
2022/03/16 05:40:34;;;;;;;12.88;11.57;;;12.40;81.30;;;;;;5035401;28;20124;-62
2022/03/16 05:42:59;;;;;;;11.63;10.52;;;12.50;81.20;;;;;;5017661;28;20105;-62
2022/03/16 05:45:25;;;;;;;13.93;12.48;;;12.50;81.30;;;;;;5035063;28;20033;-61
2022/03/16 05:47:50;;;;;;;13.77;12.38;;;12.40;81.80;;;;;;5035355;28;20022;-61
2022/03/16 05:50:16;;;;;;;12.52;11.40;;;12.40;81.60;;;;;;5034924;28;20025;-59
2022/03/16 05:52:43;;;;;;;14.73;13.07;;;12.40;81.70;;;;;;5035058;28;20419;-57
2022/03/16 05:55:09;;;;;;;13.20;11.13;;;12.50;81.20;;;;;;5035213;28;20104;-59
2022/03/16 05:57:39;;;;;;;13.88;12.18;;;12.50;81.10;;;;;;5034773;28;20028;-59
2022/03/16 06:00:08;;;;;;;12.52;11.32;;;12.50;80.70;;;;;;5033998;28;20033;-58
2022/03/16 06:02:34;;;;;;;13.88;12.45;;;12.50;80.70;;;;;;5028892;28;20505;-59
2022/03/16 06:04:59;;;;;;;13.52;12.13;;;12.50;80.80;;;;;;5014642;28;20055;-60
2022/03/16 06:07:25;;;;;;;13.88;12.48;;;12.40;80.80;;;;;;5012377;28;20033;-59
2022/03/16 06:09:51;;;;;;;14.07;12.63;;;12.40;80.80;;;;;;5013197;28;20032;-59
2022/03/16 06:12:16;;;;;;;12.88;11.60;;;12.40;80.80;;;;;;5012453;28;20083;-60
2022/03/16 06:14:42;;;;;;;13.30;11.80;;;12.40;81.10;;;;;;5013510;28;20091;-56
2022/03/16 06:17:07;;;;;;;13.93;12.63;;;12.40;80.80;;;;;;5026066;28;20026;-57
2022/03/16 06:19:33;;;;;;;15.95;14.35;;;12.40;80.90;;;;;;5013597;28;20087;-58
2022/03/16 06:21:59;;;;;;;14.70;11.65;;;12.40;80.90;;;;;;5021888;28;20026;-58
2022/03/16 06:24:24;;;;;;;13.75;12.48;;;12.40;81.10;;;;;;5033587;28;20581;-60
2022/03/16 06:26:50;;;;;;;14.63;13.20;;;12.40;81.10;;;;;;5034236;28;20373;-61
2022/03/16 06:29:15;;;;;;;14.13;12.73;;;12.40;80.80;;;;;;5032014;28;20034;-60
2022/03/16 06:31:41;;;;;;;14.85;13.27;;;12.40;80.80;;;;;;5023934;28;20109;-60
2022/03/16 06:34:07;;;;;;;15.18;13.55;;;12.40;81.00;;;;;;5029553;28;20048;-60
2022/03/16 06:36:32;;;;;;;15.60;14.00;;;12.40;80.90;;;;;;5023066;28;20018;-64
2022/03/16 06:38:58;;;;;;;16.05;14.50;;;12.40;80.60;;;;;;5030018;28;20025;-63
2022/03/16 06:41:24;;;;;;;15.43;13.82;;;12.40;80.70;;;;;;5030167;28;20508;-59
2022/03/16 06:43:50;;;;;;;15.00;13.70;;;12.30;81.00;;;;;;5025836;28;20036;-61
2022/03/16 06:46:15;;;;;;;16.48;14.90;;;12.40;80.80;;;;;;5028314;28;20029;-62
2022/03/16 06:48:41;;;;;;;15.25;13.70;;;12.40;80.80;;;;;;5032440;28;20484;-61
2022/03/16 06:51:07;;;;;;;16.05;14.45;;;12.40;80.60;;;;;;5033011;28;20038;-63
2022/03/16 06:53:33;;;;;;;16.08;14.55;;;12.40;80.80;;;;;;5018860;28;20466;-63
2022/03/16 06:55:59;;;;;;;16.50;14.68;;;12.40;80.90;;;;;;5024561;28;20501;-63
2022/03/16 06:58:24;;;;;;;18.25;16.38;;;12.30;81.30;;;;;;5022379;28;20422;-61
2022/03/16 07:00:50;;;;;;;18.38;16.63;;;12.30;80.60;;;;;;5025267;28;20026;-62
2022/03/16 07:03:16;;;;;;;23.60;16.77;;;12.30;80.60;;;;;;5026066;28;20437;-63
2022/03/16 07:05:42;;;;;;;19.27;17.27;;;12.30;81.00;;;;;;5023641;28;20048;-62
2022/03/16 07:08:10;;;;;;;20.20;18.15;;;12.30;80.60;;;;;;5027508;28;20025;-61
2022/03/16 07:10:38;;;;;;;20.23;16.85;;;12.40;80.30;;;;;;5031122;28;20025;-63
2022/03/16 07:13:04;;;;;;;20.75;17.77;;;12.30;80.60;;;;;;5029834;28;20104;-63
2022/03/16 07:15:32;;;;;;;19.75;16.42;;;12.30;80.60;;;;;;5030031;28;20038;-62
2022/03/16 07:17:58;;;;;;;17.67;15.80;;;12.40;80.40;;;;;;5032950;28;20140;-61
2022/03/16 07:20:23;;;;;;;20.13;16.83;;;12.40;80.30;;;;;;5033014;28;20088;-59
2022/03/16 07:23:12;;;;;;;18.20;16.30;;;12.40;80.50;;;;;;5031916;28;20060;-60
2022/03/16 07:25:43;;;;;;;17.80;15.52;;;12.40;80.10;;;;;;5031929;28;20034;-61
2022/03/16 07:28:09;;;;;;;18.87;16.97;;;12.40;80.30;;;;;;5033012;28;20409;-59
2022/03/16 07:30:36;;;;;;;18.20;15.68;;;12.50;80.40;;;;;;5033124;28;20021;-62
2022/03/16 07:33:02;;;;;;;17.63;15.80;;;12.50;80.30;;;;;;5032949;28;20026;-58
2022/03/16 07:35:28;;;;;;;17.40;15.75;;;12.50;80.20;;;;;;5033044;28;20063;-60
2022/03/16 07:37:55;;;;;;;17.63;15.93;;;12.50;80.50;;;;;;5033155;28;20022;-60
2022/03/16 07:40:22;;;;;;;17.80;15.93;;;12.50;80.40;;;;;;5032939;28;20068;-58
2022/03/16 07:42:49;;;;;;;17.92;16.23;;;12.50;80.40;;;;;;5033266;28;20071;-63
2022/03/16 07:45:16;;;;;;;18.00;16.13;;;12.60;80.50;;;;;;5032479;28;20480;-60
2022/03/16 07:47:42;;;;;;;18.27;16.38;;;12.60;80.60;;;;;;5032839;28;20018;-61
2022/03/16 07:50:09;;;;;;;18.25;16.33;;;12.60;80.30;;;;;;5032548;28;20064;-58
2022/03/16 07:52:35;;;;;;;16.48;14.98;;;12.60;80.80;;;;;;5033249;28;20034;-59
2022/03/16 07:55:01;;;;;;;17.42;15.75;;;12.70;80.50;;;;;;5015134;28;20018;-61
2022/03/16 07:57:26;;;;;;;16.45;14.88;;;12.70;80.40;;;;;;5032854;28;20033;-62
2022/03/16 07:59:52;;;;;;;17.33;15.57;;;12.70;80.40;;;;;;5032814;28;20025;-59
2022/03/16 08:02:18;;;;;;;17.55;15.75;;;12.70;80.40;;;;;;5032809;28;20056;-58
2022/03/16 08:04:43;;;;;;;17.98;16.08;;;12.80;80.20;;;;;;5033017;28;20021;-60
2022/03/16 08:07:12;;;;;;;16.17;14.60;;;12.70;79.80;;;;;;5032890;28;20036;-61
2022/03/16 08:09:37;;;;;;;16.70;14.98;;;12.70;80.20;;;;;;5032315;28;20029;-58
2022/03/16 08:12:04;;;;;;;14.35;12.95;;;12.80;80.60;;;;;;5032798;28;20501;-56
2022/03/16 08:14:29;;;;;;;11.55;10.25;;;12.80;80.90;;;;;;5032616;28;20537;-58
2022/03/16 08:16:55;;;;;;;13.25;11.57;;;12.80;80.90;;;;;;5032744;28;20022;-57
2022/03/16 08:19:21;;;;;;;16.00;14.35;;;12.90;80.50;;;;;;5032521;28;20140;-60
2022/03/16 08:21:47;;;;;;;15.77;13.82;;;12.90;80.10;;;;;;5032523;28;20033;-59
2022/03/16 08:24:14;;;;;;;15.45;13.88;;;12.80;80.50;;;;;;5035812;28;20029;-58
2022/03/16 08:26:39;;;;;;;16.65;15.05;;;12.90;80.40;;;;;;5036339;28;20026;-62
2022/03/16 08:29:05;;;;;;;16.27;14.68;;;12.90;79.90;;;;;;5036647;28;20036;-62
2022/03/16 08:31:30;;;;;;;15.57;14.15;;;13.00;79.70;;;;;;5036555;28;20021;-62
2022/03/16 08:33:56;;;;;;;15.77;14.20;;;13.00;79.80;;;;;;5034284;28;20029;-61
2022/03/16 08:36:22;;;;;;;16.25;14.65;;;13.00;80.30;;;;;;5034600;28;20018;-60
2022/03/16 08:38:47;;;;;;;17.25;15.27;;;13.00;80.10;;;;;;5033714;28;20083;-58
2022/03/16 08:41:13;;;;;;;17.98;16.02;;;13.00;80.00;;;;;;5036356;28;20060;-57
2022/03/16 08:43:39;;;;;;;21.58;16.90;;;13.00;79.80;;;;;;5036315;28;20080;-58
2022/03/16 08:46:05;;;;;;;18.40;16.05;;;12.90;80.30;;;;;;5029213;28;20032;-57
2022/03/16 08:48:31;;;;;;;19.00;16.45;;;12.90;80.40;;;;;;5017994;28;20029;-57
2022/03/16 08:50:57;;;;;;;16.67;14.95;;;12.90;80.50;;;;;;5031526;28;20494;-55
2022/03/16 08:53:22;;;;;;;18.65;15.90;;;12.90;81.00;;;;;;5025323;28;20505;-58
2022/03/16 08:55:48;;;;;;;17.40;15.63;;;13.00;80.80;;;;;;5029632;28;20099;-56
2022/03/16 08:58:14;;;;;;;16.23;14.55;;;13.00;80.60;;;;;;5031107;28;20405;-63
2022/03/16 09:00:41;;;;;;;16.92;15.13;;;13.00;80.70;;;;;;5027842;28;20474;-58
2022/03/16 09:03:07;;;;;;;19.85;16.05;;;13.00;80.80;;;;;;5032373;28;20029;-57
2022/03/16 09:05:32;;;;;;;17.17;15.40;;;13.00;80.60;;;;;;5034955;28;20443;-57
2022/03/16 09:07:58;;;;;;;18.55;14.45;;;13.00;80.90;;;;;;5034624;28;20491;-59
2022/03/16 09:10:24;;;;;;;20.40;17.92;;;13.00;81.30;;;;;;5034836;28;20474;-57
2022/03/16 09:12:49;;;;;;;18.67;16.75;;;13.10;81.20;;;;;;5035636;28;20041;-63
2022/03/16 09:15:15;;;;;;;17.83;15.18;;;13.10;81.20;;;;;;5031760;28;20103;-58
2022/03/16 09:17:40;;;;;;;18.38;15.70;;;13.10;81.40;;;;;;5031970;28;20036;-60
2022/03/16 09:20:06;;;;;;;19.73;15.52;;;13.10;81.40;;;;;;5021760;28;20037;-62
2022/03/16 09:22:32;;;;;;;15.82;13.32;;;13.10;81.60;;;;;;5032384;28;20493;-62
2022/03/16 09:24:58;;;;;;;15.70;12.40;;;13.20;81.50;;;;;;5017028;28;20022;-58
2022/03/16 09:27:25;;;;;;;13.00;11.80;;;13.20;81.30;;;;;;5017732;28;20024;-58
2022/03/16 09:29:51;;;;;;;17.10;15.50;;;13.30;81.00;;;;;;5035393;28;20014;-60
2022/03/16 09:32:18;;;;;;;16.90;14.75;;;13.30;80.80;;;;;;5035041;28;20030;-59
2022/03/16 09:34:44;;;;;;;16.65;15.13;;;13.30;81.10;;;;;;5034158;28;20022;-58
2022/03/16 09:37:10;;;;;;;15.02;13.63;;;13.40;81.40;;;;;;5035371;28;20025;-59
2022/03/16 09:39:36;;;;;;;13.60;12.25;;;13.30;81.30;;;;;;5032388;28;20399;-58
2022/03/16 09:42:03;;;;;;;15.90;14.05;;;13.30;81.20;;;;;;5015777;28;20057;-57
2022/03/16 09:44:30;;;;;;;14.93;13.18;;;13.30;81.30;;;;;;5019020;28;20048;-56
2022/03/16 09:46:57;;;;;;;15.27;13.68;;;13.40;81.30;;;;;;5035144;28;20025;-61
2022/03/16 09:49:23;;;;;;;13.80;11.38;;;13.40;81.30;;;;;;5034654;28;20025;-62
2022/03/16 09:51:50;;;;;;;13.93;10.80;;;13.40;81.10;;;;;;5035140;28;20029;-57
2022/03/16 09:54:16;;;;;;;15.30;12.25;;;13.50;81.30;;;;;;5034708;28;20025;-56
2022/03/16 09:56:43;;;;;;;10.25;9.05;;;13.50;80.90;;;;;;5034959;28;20044;-60
2022/03/16 09:59:10;;;;;;;14.93;13.35;;;13.50;80.50;;;;;;5034935;28;20021;-57
2022/03/16 10:01:35;;;;;;;12.55;11.35;;;13.60;81.00;;;;;;5034958;28;20040;-58
2022/03/16 10:04:03;;;;;;;17.15;15.38;;;13.60;81.10;;;;;;5034507;28;20021;-59
2022/03/16 10:06:29;;;;;;;13.07;11.68;;;13.60;81.20;;;;;;5033995;28;20045;-57
2022/03/16 10:14:24;;;;;;;16.80;14.68;;;13.60;81.40;;;;;;5033221;28;20382;-58
2022/03/16 10:19:51;;;;;;;13.73;10.32;;;13.70;81.40;;;;;;5032337;28;20132;-56
2022/03/16 10:22:30;;;;;;;9.02;7.93;;;13.60;81.10;;;;;;5033502;28;20478;-54
2022/03/16 10:25:04;;;;;;;13.07;11.85;;;13.70;80.70;;;;;;5034334;28;20122;-57
2022/03/16 10:27:36;;;;;;;10.98;8.60;;;13.70;81.00;;;;;;5033280;28;20037;-63
2022/03/16 10:30:05;;;;;;;10.80;9.70;;;13.70;80.60;;;;;;5032748;28;20025;-63
2022/03/16 10:32:31;;;;;;;15.05;13.45;;;13.80;80.90;;;;;;5033434;28;20284;-65
2022/03/16 10:35:05;;;;;;;12.18;10.93;;;13.80;81.70;;;;;;5033279;28;20029;-62
2022/03/16 10:37:31;;;;;;;12.93;11.63;;;13.80;81.10;;;;;;5034385;28;20139;-63
2022/03/16 10:39:58;;;;;;;12.75;10.48;;;13.90;81.30;;;;;;5032628;28;20478;-63
2022/03/16 10:48:14;;;;;;;12.88;11.05;;;14.00;81.20;;;;;;5031128;28;20463;-63
2022/03/16 10:50:41;;;;;;;12.23;10.77;;;14.00;80.80;;;;;;5013627;28;20025;-62
2022/03/16 10:53:06;;;;;;;13.40;11.82;;;14.00;80.80;;;;;;5016135;28;20036;-61
2022/03/16 10:55:34;;;;;;;14.73;13.23;;;14.00;81.20;;;;;;5032835;28;20021;-64
2022/03/16 10:58:00;;;;;;;17.50;15.43;;;14.00;81.50;;;;;;5032771;28;20084;-63
2022/03/16 11:00:27;;;;;;;18.45;15.15;;;14.00;81.50;;;;;;5032927;28;20029;-63
2022/03/16 11:02:54;;;;;;;15.13;12.48;;;14.00;81.70;;;;;;5030353;28;20182;-63
2022/03/16 11:05:20;;;;;;;16.65;14.82;;;14.00;81.60;;;;;;5031709;28;20470;-62
2022/03/16 11:07:51;;;;;;;14.18;12.77;;;14.00;82.10;;;;;;5033461;28;20061;-62
2022/03/16 11:10:19;;;;;;;20.50;13.23;;;14.10;82.30;;;;;;5032120;28;20056;-63
2022/03/16 11:15:30;;;;;;;14.68;12.55;;;14.10;82.30;;;;;;5032522;28;20103;-62
2022/03/16 11:17:56;;;;;;;13.98;11.35;;;14.10;82.00;;;;;;5029105;28;20024;-62
2022/03/16 11:20:23;;;;;;;13.35;11.80;;;14.10;82.10;;;;;;5030197;28;20112;-62
2022/03/16 11:25:53;;;;;;;14.20;11.25;;;14.20;81.40;;;;;;5027794;28;20033;-62
2022/03/16 11:28:33;;;;;;;15.50;13.05;;;14.20;81.60;;;;;;5023735;28;20029;-63
2022/03/16 11:31:01;;;;;;;13.48;12.07;;;14.20;81.80;;;;;;5025557;28;20029;-60
2022/03/16 11:33:27;;;;;;;15.25;11.73;;;14.30;81.90;;;;;;5029757;28;20024;-62
2022/03/16 11:35:55;;;;;;;12.30;9.40;;;14.30;81.80;;;;;;5018985;28;20029;-62
2022/03/16 11:38:21;;;;;;;15.65;11.07;;;14.30;81.30;;;;;;5029170;28;20383;-60
2022/03/16 11:40:51;;;;;;;16.30;13.50;;;14.30;81.90;;;;;;5024558;28;20124;-63
2022/03/16 11:43:18;;;;;;;19.98;13.43;;;14.40;81.80;;;;;;5024838;28;20067;-61
2022/03/16 11:45:53;;;;;;;16.30;14.02;;;14.40;82.20;;;;;;5029883;28;20025;-62
2022/03/16 11:48:35;;;;;;;18.08;14.50;;;14.40;81.90;;;;;;5020614;28;20022;-62
2022/03/16 11:51:11;;;;;;;;;;;14.40;82.10;;;;;;5028060;28;20062;-59
2022/03/16 11:53:46;;;;;;;17.02;13.10;;;14.40;81.70;;;;;;5032905;28;19909;-63
2022/03/16 11:56:24;;;;;;;14.68;9.50;;;14.40;82.20;;;;;;5030942;28;20033;-60
2022/03/16 11:58:54;;;;;;;16.65;10.88;;;14.40;81.40;;;;;;5025376;28;20026;-60
2022/03/16 12:01:34;;;;;;;17.27;10.25;;;14.50;81.60;;;;;;5024769;28;20103;-54
2022/03/16 12:04:15;;;;;;;11.23;9.57;;;14.50;81.80;;;;;;5020340;28;20104;-57
2022/03/16 12:07:08;;;;;;;16.70;13.45;;;14.50;81.60;;;;;;5026329;28;20033;-62
2022/03/16 12:09:44;;;;;;;13.60;12.20;;;14.50;81.80;;;;;;5017312;28;20163;-61
2022/03/16 12:15:12;;;;;;;16.90;12.18;;;14.50;82.40;;;;;;5016723;28;20044;-60
2022/03/16 12:17:55;;;;;;;14.50;11.80;;;14.60;82.80;;;;;;5021459;28;20045;-57
2022/03/16 12:20:21;;;;;;;13.18;11.77;;;14.60;82.50;;;;;;5015818;28;20041;-61
2022/03/16 12:22:49;;;;;;;14.63;13.00;;;14.60;82.90;;;;;;4996259;28;20018;-60
2022/03/16 12:25:26;;;;;;;14.85;12.85;;;14.60;83.10;;;;;;5020063;28;20053;-63
2022/03/16 12:30:44;;;;;;;15.52;14.02;;;14.60;83.30;;;;;;5020756;28;20560;-61
2022/03/16 12:33:22;;;;;;;19.30;14.45;;;14.60;83.60;;;;;;5017243;28;20028;-61
2022/03/16 12:35:51;;;;;;;14.77;13.27;;;14.60;83.60;;;;;;5016590;28;20482;-63
2022/03/16 12:38:19;;;;;;;16.55;13.48;;;14.60;84.00;;;;;;5021105;28;20033;-60
2022/03/16 12:43:31;;;;;;;15.75;14.13;;;14.60;84.00;;;;;;5023386;28;20445;-61
2022/03/16 12:46:08;;;;;;;16.98;14.82;;;14.60;84.20;;;;;;5026225;28;20017;-57
2022/03/16 12:48:36;;;;;;;17.20;14.35;;;14.60;84.40;;;;;;5023330;28;20509;-59
2022/03/16 12:51:02;;;;;;;17.20;14.38;;;14.60;84.60;;;;;;5019289;28;20057;-54
2022/03/16 12:53:40;;;;;;;16.77;13.50;;;14.60;84.70;;;;;;5022751;28;20022;-61
2022/03/16 12:56:10;;;;;;;17.67;14.20;;;14.60;84.70;;;;;;5008894;28;20470;-62